PWSweather.com
Personal Weather Stations
Station Observations
KTXPLANO70
Kemper Estates, Plano, TX

Kemper EstatesPlano, TX

Lat: 33.0674, Lon: -96.7659

Elevation: 737

Station Type: Davis Vantage Pro2

http://weather.dallasdawg.com

High Low Average
Temperature 41.6°F5.3°C 21.3°F-5.9°C 30.5°F-0.8°C
Dew Point 16.4°F-8.7°C 11.5°F-11.4°C 13.8°F-10.1°C
Winds 13.8 mph 22.2 kmh 1.2 mph 1.9 kmh 6.0 mph WNW9.7 kmh WNW
Wind Gusts 24.2 mph38.9 kmh 2.3 mph3.7 kmh 10.0 mph16.1 kmh
Humidity 67% 35% 51%
Pressure 30.53 in1033.9 mb 30.26 in1024.7 mb -
Precipitation 0.00 in0.0 mm - -
Hour Temp Dew Point Humidity Winds Wind Gusts Pressure Precip Precip Rate Daily Precip Total
12:00 AM 29.6°F-1.3°C 15.4°F-9.2°C 55% 9.2 mph NW14.8 kmh NW 23.0 mph37.0 kmh 30.24 in1024.0 mb - 0.00 in0.0 mm 0.00 in0.0 mm
12:05 AM 29.6°F-1.3°C 15.4°F-9.2°C 55% 11.5 mph NW18.5 kmh NW 15.0 mph24.1 kmh 30.24 in1024.0 mb - 0.00 in0.0 mm 0.00 in0.0 mm
12:10 AM 29.5°F-1.4°C 15.3°F-9.3°C 55% 12.7 mph WNW20.4 kmh WNW 20.7 mph33.3 kmh 30.25 in1024.4 mb - 0.00 in0.0 mm 0.00 in0.0 mm
12:15 AM 29.4°F-1.4°C 15.6°F-9.1°C 56% 9.2 mph NW14.8 kmh NW 20.7 mph33.3 kmh 30.25 in1024.4 mb - 0.00 in0.0 mm 0.00 in0.0 mm
12:20 AM 29.4°F-1.4°C 15.6°F-9.1°C 56% 9.2 mph WNW14.8 kmh WNW 15.0 mph24.1 kmh 30.25 in1024.4 mb - 0.00 in0.0 mm 0.00 in0.0 mm
12:25 AM 29.0°F-1.7°C 14.8°F-9.6°C 55% 12.7 mph NW20.4 kmh NW 24.2 mph38.9 kmh 30.25 in1024.4 mb - 0.00 in0.0 mm 0.00 in0.0 mm
12:30 AM 28.9°F-1.7°C 14.3°F-9.8°C 54% 16.1 mph NW25.9 kmh NW 20.7 mph33.3 kmh 30.25 in1024.4 mb - 0.00 in0.0 mm 0.00 in0.0 mm
12:35 AM 28.7°F-1.8°C 14.1°F-9.9°C 54% 13.8 mph NW22.2 kmh NW 20.7 mph33.3 kmh 30.25 in1024.4 mb - 0.00 in0.0 mm 0.00 in0.0 mm
12:40 AM 28.5°F-1.9°C 13.9°F-10.1°C 54% 12.7 mph NW20.4 kmh NW 23.0 mph37.0 kmh 30.25 in1024.4 mb - 0.00 in0.0 mm 0.00 in0.0 mm
12:45 AM 28.4°F-2.0°C 13.9°F-10.1°C 54% 11.5 mph WNW18.5 kmh WNW 13.8 mph22.2 kmh 30.26 in1024.7 mb - 0.00 in0.0 mm 0.00 in0.0 mm
12:50 AM 28.3°F-2.1°C 14.2°F-9.9°C 55% 12.7 mph NW20.4 kmh NW 18.4 mph29.6 kmh 30.26 in1024.7 mb - 0.00 in0.0 mm 0.00 in0.0 mm
12:55 AM 28.3°F-2.1°C 14.6°F-9.7°C 56% 9.2 mph WNW14.8 kmh WNW 20.7 mph33.3 kmh 30.26 in1024.7 mb - 0.00 in0.0 mm 0.00 in0.0 mm
01:00 AM 28.1°F-2.2°C 14.0°F-10.0°C 55% 11.5 mph WNW18.5 kmh WNW 20.7 mph33.3 kmh 30.26 in1024.7 mb - 0.00 in0.0 mm 0.00 in0.0 mm
01:05 AM 27.8°F-2.3°C 13.3°F-10.4°C 54% 13.8 mph NW22.2 kmh NW 24.2 mph38.9 kmh 30.26 in1024.7 mb - 0.00 in0.0 mm 0.00 in0.0 mm
01:10 AM 27.6°F-2.4°C 13.5°F-10.3°C 55% 9.2 mph NW14.8 kmh NW 24.2 mph38.9 kmh 30.27 in1025.1 mb - 0.00 in0.0 mm 0.00 in0.0 mm
01:15 AM 27.4°F-2.6°C 13.3°F-10.4°C 55% 6.9 mph NW11.1 kmh NW 19.6 mph31.5 kmh 30.26 in1024.7 mb - 0.00 in0.0 mm 0.00 in0.0 mm
01:20 AM 27.3°F-2.6°C 13.2°F-10.4°C 55% 13.8 mph WNW22.2 kmh WNW 19.6 mph31.5 kmh 30.27 in1025.1 mb - 0.00 in0.0 mm 0.00 in0.0 mm
01:25 AM 27.1°F-2.7°C 13.5°F-10.3°C 56% 6.9 mph W11.1 kmh W 17.3 mph27.8 kmh 30.27 in1025.1 mb - 0.00 in0.0 mm 0.00 in0.0 mm
01:30 AM 26.9°F-2.8°C 12.9°F-10.6°C 55% 11.5 mph NW18.5 kmh NW 17.3 mph27.8 kmh 30.27 in1025.1 mb - 0.00 in0.0 mm 0.00 in0.0 mm
01:35 AM 26.7°F-2.9°C 13.1°F-10.5°C 56% 9.2 mph NW14.8 kmh NW 19.6 mph31.5 kmh 30.27 in1025.1 mb - 0.00 in0.0 mm 0.00 in0.0 mm
01:40 AM 26.5°F-3.1°C 12.9°F-10.6°C 56% 6.9 mph NW11.1 kmh NW 10.4 mph16.7 kmh 30.27 in1025.1 mb - 0.00 in0.0 mm 0.00 in0.0 mm
01:45 AM 26.4°F-3.1°C 13.2°F-10.4°C 57% 9.2 mph NNW14.8 kmh NNW 21.9 mph35.2 kmh 30.27 in1025.1 mb - 0.00 in0.0 mm 0.00 in0.0 mm
01:50 AM 26.2°F-3.2°C 12.7°F-10.7°C 56% 6.9 mph WNW11.1 kmh WNW 11.5 mph18.5 kmh 30.27 in1025.1 mb - 0.00 in0.0 mm 0.00 in0.0 mm
01:55 AM 26.1°F-3.3°C 12.9°F-10.6°C 57% 6.9 mph NW11.1 kmh NW 19.6 mph31.5 kmh 30.27 in1025.1 mb - 0.00 in0.0 mm 0.00 in0.0 mm
02:00 AM 25.9°F-3.4°C 12.8°F-10.7°C 57% 10.4 mph NW16.7 kmh NW 13.8 mph22.2 kmh 30.27 in1025.1 mb - 0.00 in0.0 mm 0.00 in0.0 mm
02:05 AM 25.8°F-3.4°C 13.1°F-10.5°C 58% 5.8 mph W9.3 kmh W 6.9 mph11.1 kmh 30.27 in1025.1 mb - 0.00 in0.0 mm 0.00 in0.0 mm
02:10 AM 25.7°F-3.5°C 12.9°F-10.6°C 58% 8.1 mph NW13.0 kmh NW 13.8 mph22.2 kmh 30.27 in1025.1 mb - 0.00 in0.0 mm 0.00 in0.0 mm
02:15 AM 25.6°F-3.6°C 12.9°F-10.6°C 58% 11.5 mph NW18.5 kmh NW 17.3 mph27.8 kmh 30.27 in1025.1 mb - 0.00 in0.0 mm 0.00 in0.0 mm
02:20 AM 25.5°F-3.6°C 13.1°F-10.5°C 59% 10.4 mph WNW16.7 kmh WNW 18.4 mph29.6 kmh 30.27 in1025.1 mb - 0.00 in0.0 mm 0.00 in0.0 mm
02:25 AM 25.4°F-3.7°C 13.1°F-10.5°C 59% 13.8 mph NW22.2 kmh NW 21.9 mph35.2 kmh 30.27 in1025.1 mb - 0.00 in0.0 mm 0.00 in0.0 mm
02:30 AM 25.3°F-3.7°C 13.0°F-10.6°C 59% 8.1 mph NW13.0 kmh NW 15.0 mph24.1 kmh 30.27 in1025.1 mb - 0.00 in0.0 mm 0.00 in0.0 mm
02:35 AM 25.3°F-3.7°C 13.0°F-10.6°C 59% 10.4 mph NW16.7 kmh NW 16.1 mph25.9 kmh 30.27 in1025.1 mb - 0.00 in0.0 mm 0.00 in0.0 mm
02:40 AM 25.3°F-3.7°C 13.0°F-10.6°C 59% 8.1 mph NW13.0 kmh NW 13.8 mph22.2 kmh 30.27 in1025.1 mb - 0.00 in0.0 mm 0.00 in0.0 mm
02:45 AM 25.3°F-3.7°C 13.0°F-10.6°C 59% 8.1 mph NW13.0 kmh NW 9.2 mph14.8 kmh 30.27 in1025.1 mb - 0.00 in0.0 mm 0.00 in0.0 mm
02:50 AM 25.3°F-3.7°C 13.0°F-10.6°C 59% 6.9 mph NW11.1 kmh NW 12.7 mph20.4 kmh 30.27 in1025.1 mb - 0.00 in0.0 mm 0.00 in0.0 mm
02:55 AM 25.3°F-3.7°C 13.0°F-10.6°C 59% 13.8 mph NW22.2 kmh NW 20.7 mph33.3 kmh 30.27 in1025.1 mb - 0.00 in0.0 mm 0.00 in0.0 mm
03:00 AM 25.3°F-3.7°C 13.0°F-10.6°C 59% 9.2 mph NW14.8 kmh NW 13.8 mph22.2 kmh 30.27 in1025.1 mb - 0.00 in0.0 mm 0.00 in0.0 mm
03:05 AM 25.3°F-3.7°C 13.0°F-10.6°C 59% 5.8 mph WNW9.3 kmh WNW 13.8 mph22.2 kmh 30.27 in1025.1 mb - 0.00 in0.0 mm 0.00 in0.0 mm
03:10 AM 25.3°F-3.7°C 13.0°F-10.6°C 59% 8.1 mph WNW13.0 kmh WNW 12.7 mph20.4 kmh 30.27 in1025.1 mb - 0.00 in0.0 mm 0.00 in0.0 mm
03:15 AM 25.3°F-3.7°C 13.0°F-10.6°C 59% 9.2 mph NW14.8 kmh NW 17.3 mph27.8 kmh 30.27 in1025.1 mb - 0.00 in0.0 mm 0.00 in0.0 mm
03:20 AM 25.3°F-3.7°C 13.0°F-10.6°C 59% 9.2 mph WNW14.8 kmh WNW 11.5 mph18.5 kmh 30.28 in1025.4 mb - 0.00 in0.0 mm 0.00 in0.0 mm
03:25 AM 25.3°F-3.7°C 13.0°F-10.6°C 59% 12.7 mph NW20.4 kmh NW 20.7 mph33.3 kmh 30.27 in1025.1 mb - 0.00 in0.0 mm 0.00 in0.0 mm
03:30 AM 25.3°F-3.7°C 13.0°F-10.6°C 59% 6.9 mph WNW11.1 kmh WNW 10.4 mph16.7 kmh 30.27 in1025.1 mb - 0.00 in0.0 mm 0.00 in0.0 mm
03:35 AM 23.9°F-4.5°C 12.4°F-10.9°C 61% 9.2 mph NW14.8 kmh NW 12.7 mph20.4 kmh 30.27 in1025.1 mb - 0.00 in0.0 mm 0.00 in0.0 mm
03:40 AM 23.8°F-4.6°C 12.3°F-10.9°C 61% 9.2 mph NW14.8 kmh NW 17.3 mph27.8 kmh 30.27 in1025.1 mb - 0.00 in0.0 mm 0.00 in0.0 mm
03:45 AM 23.8°F-4.6°C 12.3°F-10.9°C 61% 12.7 mph NW20.4 kmh NW 18.4 mph29.6 kmh 30.27 in1025.1 mb - 0.00 in0.0 mm 0.00 in0.0 mm
03:50 AM 23.7°F-4.6°C 12.2°F-11.0°C 61% 8.1 mph NW13.0 kmh NW 12.7 mph20.4 kmh 30.28 in1025.4 mb - 0.00 in0.0 mm 0.00 in0.0 mm
03:55 AM 23.6°F-4.7°C 12.1°F-11.1°C 61% 6.9 mph NW11.1 kmh NW 13.8 mph22.2 kmh 30.28 in1025.4 mb - 0.00 in0.0 mm 0.00 in0.0 mm
04:00 AM 23.7°F-4.6°C 12.6°F-10.8°C 62% 8.1 mph NW13.0 kmh NW 12.7 mph20.4 kmh 30.28 in1025.4 mb - 0.00 in0.0 mm 0.00 in0.0 mm
04:05 AM 23.5°F-4.7°C 12.4°F-10.9°C 62% 5.8 mph WNW9.3 kmh WNW 12.7 mph20.4 kmh 30.28 in1025.4 mb - 0.00 in0.0 mm 0.00 in0.0 mm
04:10 AM 23.5°F-4.7°C 12.4°F-10.9°C 62% 8.1 mph W13.0 kmh W 11.5 mph18.5 kmh 30.29 in1025.7 mb - 0.00 in0.0 mm 0.00 in0.0 mm
04:15 AM 23.4°F-4.8°C 12.3°F-10.9°C 62% 6.9 mph WNW11.1 kmh WNW 18.4 mph29.6 kmh 30.28 in1025.4 mb - 0.00 in0.0 mm 0.00 in0.0 mm
04:20 AM 23.4°F-4.8°C 12.3°F-10.9°C 62% 8.1 mph WNW13.0 kmh WNW 13.8 mph22.2 kmh 30.29 in1025.7 mb - 0.00 in0.0 mm 0.00 in0.0 mm
04:25 AM 23.4°F-4.8°C 12.3°F-10.9°C 62% 6.9 mph NW11.1 kmh NW 12.7 mph20.4 kmh 30.29 in1025.7 mb - 0.00 in0.0 mm 0.00 in0.0 mm
04:30 AM 23.4°F-4.8°C 12.3°F-10.9°C 62% 6.9 mph NW11.1 kmh NW 10.4 mph16.7 kmh 30.29 in1025.7 mb - 0.00 in0.0 mm 0.00 in0.0 mm
04:35 AM 23.4°F-4.8°C 12.3°F-10.9°C 62% 9.2 mph WNW14.8 kmh WNW 10.4 mph16.7 kmh 30.29 in1025.7 mb - 0.00 in0.0 mm 0.00 in0.0 mm
04:40 AM 23.4°F-4.8°C 12.3°F-10.9°C 62% 8.1 mph WNW13.0 kmh WNW 10.4 mph16.7 kmh 30.29 in1025.7 mb - 0.00 in0.0 mm 0.00 in0.0 mm
04:45 AM 23.3°F-4.8°C 12.2°F-11.0°C 62% 10.4 mph NW16.7 kmh NW 17.3 mph27.8 kmh 30.30 in1026.1 mb - 0.00 in0.0 mm 0.00 in0.0 mm
04:50 AM 23.3°F-4.8°C 12.2°F-11.0°C 62% 8.1 mph WNW13.0 kmh WNW 12.7 mph20.4 kmh 30.30 in1026.1 mb - 0.00 in0.0 mm 0.00 in0.0 mm
04:55 AM 23.3°F-4.8°C 12.2°F-11.0°C 62% 4.6 mph W7.4 kmh W 6.9 mph11.1 kmh 30.30 in1026.1 mb - 0.00 in0.0 mm 0.00 in0.0 mm
05:00 AM 23.2°F-4.9°C 12.1°F-11.1°C 62% 6.9 mph NW11.1 kmh NW 11.5 mph18.5 kmh 30.30 in1026.1 mb - 0.00 in0.0 mm 0.00 in0.0 mm
05:05 AM 23.2°F-4.9°C 12.1°F-11.1°C 62% 4.6 mph W7.4 kmh W 8.1 mph13.0 kmh 30.30 in1026.1 mb - 0.00 in0.0 mm 0.00 in0.0 mm
05:10 AM 23.2°F-4.9°C 12.1°F-11.1°C 62% 6.9 mph WNW11.1 kmh WNW 11.5 mph18.5 kmh 30.31 in1026.4 mb - 0.00 in0.0 mm 0.00 in0.0 mm
05:15 AM 23.3°F-4.8°C 12.1°F-11.1°C 62% 5.8 mph W9.3 kmh W 11.5 mph18.5 kmh 30.31 in1026.4 mb - 0.00 in0.0 mm 0.00 in0.0 mm
05:20 AM 23.3°F-4.8°C 12.2°F-11.0°C 62% 6.9 mph W11.1 kmh W 9.2 mph14.8 kmh 30.31 in1026.4 mb - 0.00 in0.0 mm 0.00 in0.0 mm
05:25 AM 23.2°F-4.9°C 12.1°F-11.1°C 62% 8.1 mph WNW13.0 kmh WNW 11.5 mph18.5 kmh 30.31 in1026.4 mb - 0.00 in0.0 mm 0.00 in0.0 mm
05:30 AM 23.1°F-4.9°C 12.0°F-11.1°C 62% 8.1 mph NW13.0 kmh NW 12.7 mph20.4 kmh 30.31 in1026.4 mb - 0.00 in0.0 mm 0.00 in0.0 mm
05:35 AM 23.1°F-4.9°C 12.4°F-10.9°C 63% 5.8 mph WNW9.3 kmh WNW 6.9 mph11.1 kmh 30.30 in1026.1 mb - 0.00 in0.0 mm 0.00 in0.0 mm
05:40 AM 23.1°F-4.9°C 12.4°F-10.9°C 63% 6.9 mph W11.1 kmh W 12.7 mph20.4 kmh 30.30 in1026.1 mb - 0.00 in0.0 mm 0.00 in0.0 mm
05:45 AM 23.0°F-5.0°C 12.3°F-10.9°C 63% 4.6 mph WNW7.4 kmh WNW 10.4 mph16.7 kmh 30.30 in1026.1 mb - 0.00 in0.0 mm 0.00 in0.0 mm
05:50 AM 23.0°F-5.0°C 12.3°F-10.9°C 63% 6.9 mph W11.1 kmh W 12.7 mph20.4 kmh 30.30 in1026.1 mb - 0.00 in0.0 mm 0.00 in0.0 mm
05:55 AM 23.0°F-5.0°C 12.6°F-10.8°C 64% 6.9 mph WNW11.1 kmh WNW 13.8 mph22.2 kmh 30.30 in1026.1 mb - 0.00 in0.0 mm 0.00 in0.0 mm
06:00 AM 22.9°F-5.1°C 12.5°F-10.8°C 64% 8.1 mph NW13.0 kmh NW 13.8 mph22.2 kmh 30.30 in1026.1 mb - 0.00 in0.0 mm 0.00 in0.0 mm
06:05 AM 22.8°F-5.1°C 12.4°F-10.9°C 64% 4.6 mph W7.4 kmh W 5.8 mph9.3 kmh 30.30 in1026.1 mb - 0.00 in0.0 mm 0.00 in0.0 mm
06:10 AM 22.7°F-5.2°C 12.3°F-10.9°C 64% 9.2 mph WNW14.8 kmh WNW 12.7 mph20.4 kmh 30.30 in1026.1 mb - 0.00 in0.0 mm 0.00 in0.0 mm
06:15 AM 22.7°F-5.2°C 12.4°F-10.9°C 64% 6.9 mph WNW11.1 kmh WNW 4.6 mph7.4 kmh 30.30 in1026.1 mb - 0.00 in0.0 mm 0.00 in0.0 mm
06:20 AM 22.7°F-5.2°C 12.3°F-10.9°C 64% 4.6 mph NW7.4 kmh NW 6.9 mph11.1 kmh 30.31 in1026.4 mb - 0.00 in0.0 mm 0.00 in0.0 mm
06:25 AM 22.5°F-5.3°C 12.1°F-11.1°C 64% 8.1 mph NW13.0 kmh NW 11.5 mph18.5 kmh 30.31 in1026.4 mb - 0.00 in0.0 mm 0.00 in0.0 mm
06:30 AM 22.5°F-5.3°C 12.1°F-11.1°C 64% 9.2 mph NW14.8 kmh NW 12.7 mph20.4 kmh 30.31 in1026.4 mb - 0.00 in0.0 mm 0.00 in0.0 mm
06:35 AM 22.5°F-5.3°C 12.1°F-11.1°C 64% 6.9 mph WNW11.1 kmh WNW 11.5 mph18.5 kmh 30.32 in1026.8 mb - 0.00 in0.0 mm 0.00 in0.0 mm
06:40 AM 22.5°F-5.3°C 12.1°F-11.1°C 64% 5.8 mph WNW9.3 kmh WNW 6.9 mph11.1 kmh 30.32 in1026.8 mb - 0.00 in0.0 mm 0.00 in0.0 mm
06:45 AM 22.4°F-5.3°C 12.1°F-11.1°C 64% 8.1 mph WNW13.0 kmh WNW 10.4 mph16.7 kmh 30.32 in1026.8 mb - 0.00 in0.0 mm 0.00 in0.0 mm
06:50 AM 22.3°F-5.4°C 12.0°F-11.1°C 64% 4.6 mph WNW7.4 kmh WNW 4.6 mph7.4 kmh 30.32 in1026.8 mb - 0.00 in0.0 mm 0.00 in0.0 mm
06:55 AM 22.3°F-5.4°C 12.0°F-11.1°C 64% 5.8 mph WNW9.3 kmh WNW 12.7 mph20.4 kmh 30.32 in1026.8 mb - 0.00 in0.0 mm 0.00 in0.0 mm
07:00 AM 22.3°F-5.4°C 11.9°F-11.2°C 64% 5.8 mph W9.3 kmh W 9.2 mph14.8 kmh 30.32 in1026.8 mb - 0.00 in0.0 mm 0.00 in0.0 mm
07:05 AM 22.2°F-5.4°C 11.9°F-11.2°C 64% 8.1 mph WNW13.0 kmh WNW 12.7 mph20.4 kmh 30.32 in1026.8 mb - 0.00 in0.0 mm 0.00 in0.0 mm
07:10 AM 22.2°F-5.4°C 11.9°F-11.2°C 64% 6.9 mph WNW11.1 kmh WNW 10.4 mph16.7 kmh 30.32 in1026.8 mb - 0.00 in0.0 mm 0.00 in0.0 mm
07:15 AM 22.2°F-5.4°C 11.9°F-11.2°C 64% 3.5 mph WNW5.6 kmh WNW 8.1 mph13.0 kmh 30.32 in1026.8 mb - 0.00 in0.0 mm 0.00 in0.0 mm
07:20 AM 22.1°F-5.5°C 12.1°F-11.1°C 65% 5.8 mph W9.3 kmh W 8.1 mph13.0 kmh 30.33 in1027.1 mb - 0.00 in0.0 mm 0.00 in0.0 mm
07:25 AM 22.0°F-5.6°C 12.0°F-11.1°C 65% 3.5 mph W5.6 kmh W 5.8 mph9.3 kmh 30.33 in1027.1 mb - 0.00 in0.0 mm 0.00 in0.0 mm
07:30 AM 21.9°F-5.6°C 12.3°F-10.9°C 66% 9.2 mph NW14.8 kmh NW 13.8 mph22.2 kmh 30.33 in1027.1 mb - 0.00 in0.0 mm 0.00 in0.0 mm
07:35 AM 21.9°F-5.6°C 12.2°F-11.0°C 66% 6.9 mph WNW11.1 kmh WNW 9.2 mph14.8 kmh 30.33 in1027.1 mb - 0.00 in0.0 mm 0.00 in0.0 mm
07:40 AM 21.8°F-5.7°C 12.2°F-11.0°C 66% 6.9 mph WNW11.1 kmh WNW 15.0 mph24.1 kmh 30.33 in1027.1 mb - 0.00 in0.0 mm 0.00 in0.0 mm
07:45 AM 21.7°F-5.7°C 12.1°F-11.1°C 66% 9.2 mph NW14.8 kmh NW 16.1 mph25.9 kmh 30.33 in1027.1 mb - 0.00 in0.0 mm 0.00 in0.0 mm
07:50 AM 21.7°F-5.7°C 11.7°F-11.3°C 65% 6.9 mph WNW11.1 kmh WNW 10.4 mph16.7 kmh 30.33 in1027.1 mb - 0.00 in0.0 mm 0.00 in0.0 mm
07:55 AM 21.7°F-5.7°C 12.0°F-11.1°C 66% 4.6 mph W7.4 kmh W 4.6 mph7.4 kmh 30.34 in1027.4 mb - 0.00 in0.0 mm 0.00 in0.0 mm
08:00 AM 21.5°F-5.8°C 11.9°F-11.2°C 66% 10.4 mph WNW16.7 kmh WNW 13.8 mph22.2 kmh 30.34 in1027.4 mb - 0.00 in0.0 mm 0.00 in0.0 mm
08:05 AM 21.6°F-5.8°C 11.6°F-11.3°C 65% 6.9 mph W11.1 kmh W 6.9 mph11.1 kmh 30.34 in1027.4 mb - 0.00 in0.0 mm 0.00 in0.0 mm
08:10 AM 21.5°F-5.8°C 11.5°F-11.4°C 65% 6.9 mph WNW11.1 kmh WNW 11.5 mph18.5 kmh 30.34 in1027.4 mb - 0.00 in0.0 mm 0.00 in0.0 mm
08:15 AM 21.4°F-5.9°C 11.5°F-11.4°C 65% 6.9 mph W11.1 kmh W 10.4 mph16.7 kmh 30.34 in1027.4 mb - 0.00 in0.0 mm 0.00 in0.0 mm
08:20 AM 21.4°F-5.9°C 11.5°F-11.4°C 65% 3.5 mph W5.6 kmh W 4.6 mph7.4 kmh 30.35 in1027.8 mb - 0.00 in0.0 mm 0.00 in0.0 mm
08:25 AM 21.4°F-5.9°C 11.5°F-11.4°C 65% 8.1 mph W13.0 kmh W 10.4 mph16.7 kmh 30.35 in1027.8 mb - 0.00 in0.0 mm 0.00 in0.0 mm
08:30 AM 21.4°F-5.9°C 11.5°F-11.4°C 65% 4.6 mph WNW7.4 kmh WNW 8.1 mph13.0 kmh 30.35 in1027.8 mb - 0.00 in0.0 mm 0.00 in0.0 mm
08:35 AM 21.4°F-5.9°C 11.8°F-11.2°C 66% 4.6 mph WSW7.4 kmh WSW 4.6 mph7.4 kmh 30.35 in1027.8 mb - 0.00 in0.0 mm 0.00 in0.0 mm
08:40 AM 21.4°F-5.9°C 12.1°F-11.1°C 67% 2.3 mph WSW3.7 kmh WSW 3.5 mph5.6 kmh 30.36 in1028.1 mb - 0.00 in0.0 mm 0.00 in0.0 mm
08:45 AM 21.3°F-5.9°C 11.7°F-11.3°C 66% 5.8 mph W9.3 kmh W 9.2 mph14.8 kmh 30.36 in1028.1 mb - 0.00 in0.0 mm 0.00 in0.0 mm
08:50 AM 21.3°F-5.9°C 11.7°F-11.3°C 66% 2.3 mph WSW3.7 kmh WSW 4.6 mph7.4 kmh 30.36 in1028.1 mb - 0.00 in0.0 mm 0.00 in0.0 mm
08:55 AM 21.4°F-5.9°C 11.8°F-11.2°C 66% 3.5 mph W5.6 kmh W 5.8 mph9.3 kmh 30.36 in1028.1 mb - 0.00 in0.0 mm 0.00 in0.0 mm
09:00 AM 21.4°F-5.9°C 11.8°F-11.2°C 66% 9.2 mph W14.8 kmh W 13.8 mph22.2 kmh 30.36 in1028.1 mb - 0.00 in0.0 mm 0.00 in0.0 mm
09:05 AM 21.5°F-5.8°C 11.9°F-11.2°C 66% 3.5 mph W5.6 kmh W 6.9 mph11.1 kmh 30.36 in1028.1 mb - 0.00 in0.0 mm 0.00 in0.0 mm
09:10 AM 21.7°F-5.7°C 12.0°F-11.1°C 66% 4.6 mph NW7.4 kmh NW 8.1 mph13.0 kmh 30.37 in1028.4 mb - 0.00 in0.0 mm 0.00 in0.0 mm
09:15 AM 21.8°F-5.7°C 11.8°F-11.2°C 65% 5.8 mph WNW9.3 kmh WNW 13.8 mph22.2 kmh 30.37 in1028.4 mb - 0.00 in0.0 mm 0.00 in0.0 mm
09:20 AM 22.0°F-5.6°C 12.0°F-11.1°C 65% 5.8 mph W9.3 kmh W 8.1 mph13.0 kmh 30.37 in1028.4 mb - 0.00 in0.0 mm 0.00 in0.0 mm
09:25 AM 22.2°F-5.4°C 12.2°F-11.0°C 65% 9.2 mph WNW14.8 kmh WNW 11.5 mph18.5 kmh 30.38 in1028.8 mb - 0.00 in0.0 mm 0.00 in0.0 mm
09:30 AM 22.3°F-5.4°C 12.0°F-11.1°C 64% 4.6 mph WNW7.4 kmh WNW 6.9 mph11.1 kmh 30.38 in1028.8 mb - 0.00 in0.0 mm 0.00 in0.0 mm
09:35 AM 22.6°F-5.2°C 12.2°F-11.0°C 64% 6.9 mph W11.1 kmh W 9.2 mph14.8 kmh 30.38 in1028.8 mb - 0.00 in0.0 mm 0.00 in0.0 mm
09:40 AM 22.8°F-5.1°C 12.4°F-10.9°C 64% 5.8 mph WNW9.3 kmh WNW 8.1 mph13.0 kmh 30.39 in1029.1 mb - 0.00 in0.0 mm 0.00 in0.0 mm
09:45 AM 22.9°F-5.1°C 12.2°F-11.0°C 63% 5.8 mph WNW9.3 kmh WNW 13.8 mph22.2 kmh 30.39 in1029.1 mb - 0.00 in0.0 mm 0.00 in0.0 mm
09:50 AM 23.0°F-5.0°C 11.9°F-11.2°C 62% 10.4 mph WNW16.7 kmh WNW 13.8 mph22.2 kmh 30.39 in1029.1 mb - 0.00 in0.0 mm 0.00 in0.0 mm
09:55 AM 23.3°F-4.8°C 12.2°F-11.0°C 62% 9.2 mph NW14.8 kmh NW 18.4 mph29.6 kmh 30.39 in1029.1 mb - 0.00 in0.0 mm 0.00 in0.0 mm
10:00 AM 23.3°F-4.8°C 11.8°F-11.2°C 61% 8.1 mph NW13.0 kmh NW 12.7 mph20.4 kmh 30.39 in1029.1 mb - 0.00 in0.0 mm 0.00 in0.0 mm
10:05 AM 23.3°F-4.8°C 11.8°F-11.2°C 61% 8.1 mph WNW13.0 kmh WNW 12.7 mph20.4 kmh 30.39 in1029.1 mb - 0.00 in0.0 mm 0.00 in0.0 mm
10:10 AM 23.8°F-4.6°C 12.3°F-10.9°C 61% 5.8 mph WNW9.3 kmh WNW 6.9 mph11.1 kmh 30.39 in1029.1 mb - 0.00 in0.0 mm 0.00 in0.0 mm
10:15 AM 24.2°F-4.3°C 11.9°F-11.2°C 59% 5.8 mph WNW9.3 kmh WNW 11.5 mph18.5 kmh 30.40 in1029.5 mb - 0.00 in0.0 mm 0.00 in0.0 mm
10:20 AM 24.2°F-4.3°C 11.9°F-11.2°C 59% 9.2 mph NW14.8 kmh NW 11.5 mph18.5 kmh 30.40 in1029.5 mb - 0.00 in0.0 mm 0.00 in0.0 mm
10:25 AM 24.7°F-4.1°C 12.0°F-11.1°C 58% 8.1 mph WNW13.0 kmh WNW 16.1 mph25.9 kmh 30.41 in1029.8 mb - 0.00 in0.0 mm 0.00 in0.0 mm
10:30 AM 24.8°F-4.0°C 12.1°F-11.1°C 58% 6.9 mph WNW11.1 kmh WNW 9.2 mph14.8 kmh 30.41 in1029.8 mb - 0.00 in0.0 mm 0.00 in0.0 mm
10:35 AM 25.4°F-3.7°C 12.2°F-11.0°C 57% 5.8 mph WNW9.3 kmh WNW 12.7 mph20.4 kmh 30.41 in1029.8 mb - 0.00 in0.0 mm 0.00 in0.0 mm
10:40 AM 25.4°F-3.7°C 11.9°F-11.2°C 56% 8.1 mph WNW13.0 kmh WNW 15.0 mph24.1 kmh 30.41 in1029.8 mb - 0.00 in0.0 mm 0.00 in0.0 mm
10:45 AM 25.3°F-3.7°C 12.2°F-11.0°C 57% 6.9 mph NW11.1 kmh NW 12.7 mph20.4 kmh 30.41 in1029.8 mb - 0.00 in0.0 mm 0.00 in0.0 mm
10:50 AM 26.0°F-3.3°C 12.4°F-10.9°C 56% 8.1 mph WNW13.0 kmh WNW 12.7 mph20.4 kmh 30.41 in1029.8 mb - 0.00 in0.0 mm 0.00 in0.0 mm
10:55 AM 25.6°F-3.6°C 12.4°F-10.9°C 57% 9.2 mph NW14.8 kmh NW 13.8 mph22.2 kmh 30.41 in1029.8 mb - 0.00 in0.0 mm 0.00 in0.0 mm
11:00 AM 25.8°F-3.4°C 12.6°F-10.8°C 57% 9.2 mph NW14.8 kmh NW 12.7 mph20.4 kmh 30.41 in1029.8 mb - 0.00 in0.0 mm 0.00 in0.0 mm
11:05 AM 26.3°F-3.2°C 12.7°F-10.7°C 56% 5.8 mph NW9.3 kmh NW 9.2 mph14.8 kmh 30.42 in1030.1 mb - 0.00 in0.0 mm 0.00 in0.0 mm
11:10 AM 26.9°F-2.8°C 12.9°F-10.6°C 55% 8.1 mph NW13.0 kmh NW 12.7 mph20.4 kmh 30.42 in1030.1 mb - 0.00 in0.0 mm 0.00 in0.0 mm
11:15 AM 27.0°F-2.8°C 12.6°F-10.8°C 54% 6.9 mph W11.1 kmh W 9.2 mph14.8 kmh 30.42 in1030.1 mb - 0.00 in0.0 mm 0.00 in0.0 mm
11:20 AM 27.8°F-2.3°C 13.3°F-10.4°C 54% 5.8 mph W9.3 kmh W 11.5 mph18.5 kmh 30.42 in1030.1 mb - 0.00 in0.0 mm 0.00 in0.0 mm
11:25 AM 28.3°F-2.1°C 13.3°F-10.4°C 53% 5.8 mph WNW9.3 kmh WNW 15.0 mph24.1 kmh 30.43 in1030.5 mb - 0.00 in0.0 mm 0.00 in0.0 mm
11:30 AM 27.6°F-2.4°C 13.1°F-10.5°C 54% 6.9 mph W11.1 kmh W 10.4 mph16.7 kmh 30.43 in1030.5 mb - 0.00 in0.0 mm 0.00 in0.0 mm
11:35 AM 27.9°F-2.3°C 12.9°F-10.6°C 53% 6.9 mph WNW11.1 kmh WNW 13.8 mph22.2 kmh 30.43 in1030.5 mb - 0.00 in0.0 mm 0.00 in0.0 mm
11:40 AM 28.5°F-1.9°C 13.6°F-10.2°C 53% 2.3 mph WNW3.7 kmh WNW 6.9 mph11.1 kmh 30.43 in1030.5 mb - 0.00 in0.0 mm 0.00 in0.0 mm
11:45 AM 28.8°F-1.8°C 12.9°F-10.6°C 51% 5.8 mph NW9.3 kmh NW 10.4 mph16.7 kmh 30.44 in1030.8 mb - 0.00 in0.0 mm 0.00 in0.0 mm
11:50 AM 29.9°F-1.2°C 13.5°F-10.3°C 50% 6.9 mph W11.1 kmh W 12.7 mph20.4 kmh 30.43 in1030.5 mb - 0.00 in0.0 mm 0.00 in0.0 mm
11:55 AM 29.5°F-1.4°C 13.1°F-10.5°C 50% 5.8 mph W9.3 kmh W 5.8 mph9.3 kmh 30.43 in1030.5 mb - 0.00 in0.0 mm 0.00 in0.0 mm
12:00 PM 29.4°F-1.4°C 13.0°F-10.6°C 50% 6.9 mph WSW11.1 kmh WSW 6.9 mph11.1 kmh 30.44 in1030.8 mb - 0.00 in0.0 mm 0.00 in0.0 mm
12:05 PM 29.3°F-1.5°C 13.3°F-10.4°C 51% 6.9 mph WSW11.1 kmh WSW 6.9 mph11.1 kmh 30.43 in1030.5 mb - 0.00 in0.0 mm 0.00 in0.0 mm
12:10 PM 29.5°F-1.4°C 13.6°F-10.2°C 51% 6.9 mph WNW11.1 kmh WNW 10.4 mph16.7 kmh 30.44 in1030.8 mb - 0.00 in0.0 mm 0.00 in0.0 mm
12:15 PM 30.1°F-1.1°C 13.7°F-10.2°C 50% 8.1 mph WNW13.0 kmh WNW 11.5 mph18.5 kmh 30.44 in1030.8 mb - 0.00 in0.0 mm 0.00 in0.0 mm
12:20 PM 29.9°F-1.2°C 13.5°F-10.3°C 50% 4.6 mph WNW7.4 kmh WNW 10.4 mph16.7 kmh 30.44 in1030.8 mb - 0.00 in0.0 mm 0.00 in0.0 mm
12:25 PM 30.2°F-1.0°C 13.3°F-10.4°C 49% 5.8 mph NW9.3 kmh NW 8.1 mph13.0 kmh 30.43 in1030.5 mb - 0.00 in0.0 mm 0.00 in0.0 mm
12:30 PM 30.6°F-0.8°C 13.2°F-10.4°C 48% 6.9 mph NW11.1 kmh NW 12.7 mph20.4 kmh 30.43 in1030.5 mb - 0.00 in0.0 mm 0.00 in0.0 mm
12:35 PM 31.7°F-0.2°C 13.7°F-10.2°C 47% 8.1 mph NW13.0 kmh NW 11.5 mph18.5 kmh 30.43 in1030.5 mb - 0.00 in0.0 mm 0.00 in0.0 mm
12:40 PM 31.3°F-0.4°C 13.4°F-10.3°C 47% 11.5 mph WNW18.5 kmh WNW 15.0 mph24.1 kmh 30.43 in1030.5 mb - 0.00 in0.0 mm 0.00 in0.0 mm
12:45 PM 31.6°F-0.2°C 14.1°F-9.9°C 48% 3.5 mph WNW5.6 kmh WNW 9.2 mph14.8 kmh 30.42 in1030.1 mb - 0.00 in0.0 mm 0.00 in0.0 mm
12:50 PM 31.7°F-0.2°C 13.3°F-10.4°C 46% 6.9 mph WNW11.1 kmh WNW 6.9 mph11.1 kmh 30.41 in1029.8 mb - 0.00 in0.0 mm 0.00 in0.0 mm
12:55 PM 32.3°F0.2°C 13.8°F-10.1°C 46% 6.9 mph NW11.1 kmh NW 12.7 mph20.4 kmh 30.41 in1029.8 mb - 0.00 in0.0 mm 0.00 in0.0 mm
01:00 PM 32.5°F0.3°C 14.0°F-10.0°C 46% 6.9 mph W11.1 kmh W 9.2 mph14.8 kmh 30.41 in1029.8 mb - 0.00 in0.0 mm 0.00 in0.0 mm
01:05 PM 33.0°F0.6°C 14.4°F-9.8°C 46% 6.9 mph NW11.1 kmh NW 11.5 mph18.5 kmh 30.41 in1029.8 mb - 0.00 in0.0 mm 0.00 in0.0 mm
01:10 PM 33.1°F0.6°C 14.0°F-10.0°C 45% 8.1 mph NW13.0 kmh NW 10.4 mph16.7 kmh 30.40 in1029.5 mb - 0.00 in0.0 mm 0.00 in0.0 mm
01:15 PM 33.5°F0.8°C 14.4°F-9.8°C 45% 8.1 mph NW13.0 kmh NW 12.7 mph20.4 kmh 30.40 in1029.5 mb - 0.00 in0.0 mm 0.00 in0.0 mm
01:20 PM 33.1°F0.6°C 14.0°F-10.0°C 45% 5.8 mph NW9.3 kmh NW 11.5 mph18.5 kmh 30.39 in1029.1 mb - 0.00 in0.0 mm 0.00 in0.0 mm
01:25 PM 34.1°F1.2°C 15.0°F-9.4°C 45% 5.8 mph NW9.3 kmh NW 10.4 mph16.7 kmh 30.39 in1029.1 mb - 0.00 in0.0 mm 0.00 in0.0 mm
01:30 PM 34.5°F1.4°C 14.8°F-9.6°C 44% 6.9 mph NW11.1 kmh NW 11.5 mph18.5 kmh 30.39 in1029.1 mb - 0.00 in0.0 mm 0.00 in0.0 mm
01:35 PM 34.2°F1.2°C 14.5°F-9.7°C 44% 6.9 mph NW11.1 kmh NW 10.4 mph16.7 kmh 30.39 in1029.1 mb - 0.00 in0.0 mm 0.00 in0.0 mm
01:40 PM 34.9°F1.6°C 14.6°F-9.7°C 43% 5.8 mph WNW9.3 kmh WNW 8.1 mph13.0 kmh 30.38 in1028.8 mb - 0.00 in0.0 mm 0.00 in0.0 mm
01:45 PM 35.4°F1.9°C 15.1°F-9.4°C 43% 4.6 mph WSW7.4 kmh WSW 5.8 mph9.3 kmh 30.38 in1028.8 mb - 0.00 in0.0 mm 0.00 in0.0 mm
01:50 PM 35.3°F1.8°C 15.0°F-9.4°C 43% 4.6 mph W7.4 kmh W 6.9 mph11.1 kmh 30.38 in1028.8 mb - 0.00 in0.0 mm 0.00 in0.0 mm
01:55 PM 35.3°F1.8°C 14.4°F-9.8°C 42% 5.8 mph W9.3 kmh W 12.7 mph20.4 kmh 30.38 in1028.8 mb - 0.00 in0.0 mm 0.00 in0.0 mm
02:00 PM 36.2°F2.3°C 16.3°F-8.7°C 44% 4.6 mph W7.4 kmh W 8.1 mph13.0 kmh 30.37 in1028.4 mb - 0.00 in0.0 mm 0.00 in0.0 mm
02:05 PM 35.9°F2.2°C 15.0°F-9.4°C 42% 5.8 mph WNW9.3 kmh WNW 9.2 mph14.8 kmh 30.37 in1028.4 mb - 0.00 in0.0 mm 0.00 in0.0 mm
02:10 PM 35.8°F2.1°C 14.4°F-9.8°C 41% 6.9 mph WNW11.1 kmh WNW 8.1 mph13.0 kmh 30.36 in1028.1 mb - 0.00 in0.0 mm 0.00 in0.0 mm
02:15 PM 36.4°F2.4°C 14.9°F-9.5°C 41% 5.8 mph SW9.3 kmh SW 5.8 mph9.3 kmh 30.36 in1028.1 mb - 0.00 in0.0 mm 0.00 in0.0 mm
02:20 PM 36.8°F2.7°C 15.2°F-9.3°C 41% 8.1 mph NW13.0 kmh NW 12.7 mph20.4 kmh 30.36 in1028.1 mb - 0.00 in0.0 mm 0.00 in0.0 mm
02:25 PM 37.5°F3.1°C 15.9°F-8.9°C 41% 6.9 mph NW11.1 kmh NW 10.4 mph16.7 kmh 30.36 in1028.1 mb - 0.00 in0.0 mm 0.00 in0.0 mm
02:30 PM 38.0°F3.3°C 15.8°F-9.0°C 40% 6.9 mph NW11.1 kmh NW 11.5 mph18.5 kmh 30.35 in1027.8 mb - 0.00 in0.0 mm 0.00 in0.0 mm
02:35 PM 38.0°F3.3°C 15.8°F-9.0°C 40% 4.6 mph NW7.4 kmh NW 10.4 mph16.7 kmh 30.35 in1027.8 mb - 0.00 in0.0 mm 0.00 in0.0 mm
02:40 PM 37.8°F3.2°C 14.4°F-9.8°C 38% 5.8 mph W9.3 kmh W 6.9 mph11.1 kmh 30.35 in1027.8 mb - 0.00 in0.0 mm 0.00 in0.0 mm
02:45 PM 38.2°F3.4°C 15.9°F-8.9°C 40% 5.8 mph NW9.3 kmh NW 9.2 mph14.8 kmh 30.35 in1027.8 mb - 0.00 in0.0 mm 0.00 in0.0 mm
02:50 PM 38.6°F3.7°C 15.1°F-9.4°C 38% 6.9 mph NW11.1 kmh NW 10.4 mph16.7 kmh 30.34 in1027.4 mb - 0.00 in0.0 mm 0.00 in0.0 mm
02:55 PM 38.3°F3.5°C 15.5°F-9.2°C 39% 5.8 mph W9.3 kmh W 15.0 mph24.1 kmh 30.34 in1027.4 mb - 0.00 in0.0 mm 0.00 in0.0 mm
03:00 PM 38.8°F3.8°C 15.3°F-9.3°C 38% 5.8 mph W9.3 kmh W 5.8 mph9.3 kmh 30.34 in1027.4 mb - 0.00 in0.0 mm 0.00 in0.0 mm
03:05 PM 39.1°F3.9°C 15.6°F-9.1°C 38% 5.8 mph NW9.3 kmh NW 12.7 mph20.4 kmh 30.34 in1027.4 mb - 0.00 in0.0 mm 0.00 in0.0 mm
03:10 PM 39.3°F4.1°C 15.7°F-9.1°C 38% 6.9 mph NW11.1 kmh NW 11.5 mph18.5 kmh 30.34 in1027.4 mb - 0.00 in0.0 mm 0.00 in0.0 mm
03:15 PM 40.0°F4.4°C 15.8°F-9.0°C 37% 5.8 mph WNW9.3 kmh WNW 9.2 mph14.8 kmh 30.34 in1027.4 mb - 0.00 in0.0 mm 0.00 in0.0 mm
03:20 PM 39.9°F4.4°C 15.7°F-9.1°C 37% 6.9 mph NW11.1 kmh NW 11.5 mph18.5 kmh 30.34 in1027.4 mb - 0.00 in0.0 mm 0.00 in0.0 mm
03:25 PM 40.3°F4.6°C 16.1°F-8.8°C 37% 4.6 mph NW7.4 kmh NW 6.9 mph11.1 kmh 30.34 in1027.4 mb - 0.00 in0.0 mm 0.00 in0.0 mm
03:30 PM 40.0°F4.4°C 15.8°F-9.0°C 37% 8.1 mph NNW13.0 kmh NNW 12.7 mph20.4 kmh 30.34 in1027.4 mb - 0.00 in0.0 mm 0.00 in0.0 mm
03:35 PM 40.0°F4.4°C 15.8°F-9.0°C 37% 5.8 mph WNW9.3 kmh WNW 8.1 mph13.0 kmh 30.34 in1027.4 mb - 0.00 in0.0 mm 0.00 in0.0 mm
03:40 PM 40.1°F4.5°C 15.9°F-8.9°C 37% 5.8 mph NW9.3 kmh NW 8.1 mph13.0 kmh 30.34 in1027.4 mb - 0.00 in0.0 mm 0.00 in0.0 mm
03:45 PM 40.9°F4.9°C 15.9°F-8.9°C 36% 5.8 mph NW9.3 kmh NW 9.2 mph14.8 kmh 30.34 in1027.4 mb - 0.00 in0.0 mm 0.00 in0.0 mm
03:50 PM 41.1°F5.1°C 16.1°F-8.8°C 36% 5.8 mph WSW9.3 kmh WSW 10.4 mph16.7 kmh 30.34 in1027.4 mb - 0.00 in0.0 mm 0.00 in0.0 mm
03:55 PM 40.8°F4.9°C 15.8°F-9.0°C 36% 5.8 mph WNW9.3 kmh WNW 10.4 mph16.7 kmh 30.34 in1027.4 mb - 0.00 in0.0 mm 0.00 in0.0 mm
04:00 PM 40.7°F4.8°C 15.8°F-9.0°C 36% 4.6 mph W7.4 kmh W 4.6 mph7.4 kmh 30.34 in1027.4 mb - 0.00 in0.0 mm 0.00 in0.0 mm
04:05 PM 40.7°F4.8°C 16.4°F-8.7°C 37% 6.9 mph NW11.1 kmh NW 12.7 mph20.4 kmh 30.35 in1027.8 mb - 0.00 in0.0 mm 0.00 in0.0 mm
04:10 PM 40.7°F4.8°C 15.8°F-9.0°C 36% 4.6 mph WNW7.4 kmh WNW 8.1 mph13.0 kmh 30.34 in1027.4 mb - 0.00 in0.0 mm 0.00 in0.0 mm
04:15 PM 41.1°F5.1°C 16.1°F-8.8°C 36% 3.5 mph W5.6 kmh W 6.9 mph11.1 kmh 30.35 in1027.8 mb - 0.00 in0.0 mm 0.00 in0.0 mm
04:20 PM 41.6°F5.3°C 15.9°F-8.9°C 35% 1.2 mph NW1.9 kmh NW 6.9 mph11.1 kmh 30.34 in1027.4 mb - 0.00 in0.0 mm 0.00 in0.0 mm
04:25 PM 41.1°F5.1°C 16.2°F-8.8°C 36% 5.8 mph WNW9.3 kmh WNW 8.1 mph13.0 kmh 30.34 in1027.4 mb - 0.00 in0.0 mm 0.00 in0.0 mm
04:30 PM 40.8°F4.9°C 15.2°F-9.3°C 35% 4.6 mph NW7.4 kmh NW 13.8 mph22.2 kmh 30.34 in1027.4 mb - 0.00 in0.0 mm 0.00 in0.0 mm
04:35 PM 41.2°F5.1°C 16.2°F-8.8°C 36% 4.6 mph NNW7.4 kmh NNW 5.8 mph9.3 kmh 30.34 in1027.4 mb - 0.00 in0.0 mm 0.00 in0.0 mm
04:40 PM 41.3°F5.2°C 15.7°F-9.1°C 35% 8.1 mph NW13.0 kmh NW 11.5 mph18.5 kmh 30.34 in1027.4 mb - 0.00 in0.0 mm 0.00 in0.0 mm
04:45 PM 41.4°F5.2°C 15.7°F-9.1°C 35% 8.1 mph NW13.0 kmh NW 9.2 mph14.8 kmh 30.34 in1027.4 mb - 0.00 in0.0 mm 0.00 in0.0 mm
04:50 PM 41.0°F5.0°C 15.4°F-9.2°C 35% 6.9 mph NW11.1 kmh NW 9.2 mph14.8 kmh 30.34 in1027.4 mb - 0.00 in0.0 mm 0.00 in0.0 mm
04:55 PM 41.4°F5.2°C 15.7°F-9.1°C 35% 5.8 mph NW9.3 kmh NW 10.4 mph16.7 kmh 30.34 in1027.4 mb - 0.00 in0.0 mm 0.00 in0.0 mm
05:00 PM 41.4°F5.2°C 15.8°F-9.0°C 35% 6.9 mph NW11.1 kmh NW 12.7 mph20.4 kmh 30.34 in1027.4 mb - 0.00 in0.0 mm 0.00 in0.0 mm
05:05 PM 41.3°F5.2°C 16.3°F-8.7°C 36% 5.8 mph NW9.3 kmh NW 11.5 mph18.5 kmh 30.34 in1027.4 mb - 0.00 in0.0 mm 0.00 in0.0 mm
05:10 PM 40.9°F4.9°C 15.3°F-9.3°C 35% 8.1 mph NW13.0 kmh NW 12.7 mph20.4 kmh 30.34 in1027.4 mb - 0.00 in0.0 mm 0.00 in0.0 mm
05:15 PM 40.8°F4.9°C 15.9°F-8.9°C 36% 5.8 mph NW9.3 kmh NW 8.1 mph13.0 kmh 30.34 in1027.4 mb - 0.00 in0.0 mm 0.00 in0.0 mm
05:20 PM 40.8°F4.9°C 15.2°F-9.3°C 35% 6.9 mph NW11.1 kmh NW 12.7 mph20.4 kmh 30.34 in1027.4 mb - 0.00 in0.0 mm 0.00 in0.0 mm
05:25 PM 40.8°F4.9°C 15.9°F-8.9°C 36% 5.8 mph NW9.3 kmh NW 8.1 mph13.0 kmh 30.34 in1027.4 mb - 0.00 in0.0 mm 0.00 in0.0 mm
05:30 PM 40.9°F4.9°C 15.9°F-8.9°C 36% 4.6 mph NW7.4 kmh NW 10.4 mph16.7 kmh 30.35 in1027.8 mb - 0.00 in0.0 mm 0.00 in0.0 mm
05:35 PM 40.8°F4.9°C 15.9°F-8.9°C 36% 6.9 mph NW11.1 kmh NW 11.5 mph18.5 kmh 30.35 in1027.8 mb - 0.00 in0.0 mm 0.00 in0.0 mm
05:40 PM 40.8°F4.9°C 15.8°F-9.0°C 36% 6.9 mph NW11.1 kmh NW 12.7 mph20.4 kmh 30.36 in1028.1 mb - 0.00 in0.0 mm 0.00 in0.0 mm
05:45 PM 40.7°F4.8°C 15.8°F-9.0°C 36% 6.9 mph NW11.1 kmh NW 11.5 mph18.5 kmh 30.36 in1028.1 mb - 0.00 in0.0 mm 0.00 in0.0 mm
05:50 PM 40.6°F4.8°C 15.7°F-9.1°C 36% 5.8 mph NW9.3 kmh NW 10.4 mph16.7 kmh 30.36 in1028.1 mb - 0.00 in0.0 mm 0.00 in0.0 mm
05:55 PM 40.5°F4.7°C 15.6°F-9.1°C 36% 5.8 mph NW9.3 kmh NW 6.9 mph11.1 kmh 30.36 in1028.1 mb - 0.00 in0.0 mm 0.00 in0.0 mm
06:00 PM 40.5°F4.7°C 15.6°F-9.1°C 36% 5.8 mph WNW9.3 kmh WNW 8.1 mph13.0 kmh 30.36 in1028.1 mb - 0.00 in0.0 mm 0.00 in0.0 mm
06:05 PM 40.3°F4.6°C 15.4°F-9.2°C 36% 3.5 mph NW5.6 kmh NW 5.8 mph9.3 kmh 30.36 in1028.1 mb - 0.00 in0.0 mm 0.00 in0.0 mm
06:10 PM 40.2°F4.6°C 15.3°F-9.3°C 36% 4.6 mph N7.4 kmh N 5.8 mph9.3 kmh 30.36 in1028.1 mb - 0.00 in0.0 mm 0.00 in0.0 mm
06:15 PM 39.7°F4.3°C 14.9°F-9.5°C 36% 3.5 mph NW5.6 kmh NW 6.9 mph11.1 kmh 30.36 in1028.1 mb - 0.00 in0.0 mm 0.00 in0.0 mm
06:20 PM 39.6°F4.2°C 14.8°F-9.6°C 36% 4.6 mph NW7.4 kmh NW 4.6 mph7.4 kmh 30.36 in1028.1 mb - 0.00 in0.0 mm 0.00 in0.0 mm
06:25 PM 39.4°F4.1°C 15.3°F-9.3°C 37% 4.6 mph NNW7.4 kmh NNW 5.8 mph9.3 kmh 30.36 in1028.1 mb - 0.00 in0.0 mm 0.00 in0.0 mm
06:30 PM 39.0°F3.9°C 15.5°F-9.2°C 38% 3.5 mph NW5.6 kmh NW 4.6 mph7.4 kmh 30.36 in1028.1 mb - 0.00 in0.0 mm 0.00 in0.0 mm
06:35 PM 38.8°F3.8°C 15.3°F-9.3°C 38% 5.8 mph NNW9.3 kmh NNW 6.9 mph11.1 kmh 30.37 in1028.4 mb - 0.00 in0.0 mm 0.00 in0.0 mm
06:40 PM 38.7°F3.7°C 15.2°F-9.3°C 38% 4.6 mph NNW7.4 kmh NNW 6.9 mph11.1 kmh 30.37 in1028.4 mb - 0.00 in0.0 mm 0.00 in0.0 mm
06:45 PM 38.5°F3.6°C 15.6°F-9.1°C 39% 4.6 mph NW7.4 kmh NW 5.8 mph9.3 kmh 30.37 in1028.4 mb - 0.00 in0.0 mm 0.00 in0.0 mm
06:50 PM 38.2°F3.4°C 16.0°F-8.9°C 40% 3.5 mph NNW5.6 kmh NNW 6.9 mph11.1 kmh 30.37 in1028.4 mb - 0.00 in0.0 mm 0.00 in0.0 mm
06:55 PM 38.0°F3.3°C 15.8°F-9.0°C 40% 3.5 mph N5.6 kmh N 6.9 mph11.1 kmh 30.37 in1028.4 mb - 0.00 in0.0 mm 0.00 in0.0 mm
07:00 PM 37.7°F3.2°C 16.1°F-8.8°C 41% 2.3 mph NW3.7 kmh NW 4.6 mph7.4 kmh 30.38 in1028.8 mb - 0.00 in0.0 mm 0.00 in0.0 mm
07:05 PM 37.3°F2.9°C 15.7°F-9.1°C 41% 3.5 mph NNW5.6 kmh NNW 4.6 mph7.4 kmh 30.38 in1028.8 mb - 0.00 in0.0 mm 0.00 in0.0 mm
07:10 PM 37.2°F2.9°C 15.6°F-9.1°C 41% 3.5 mph NNW5.6 kmh NNW 4.6 mph7.4 kmh 30.38 in1028.8 mb - 0.00 in0.0 mm 0.00 in0.0 mm
07:15 PM 37.3°F2.9°C 15.7°F-9.1°C 41% 3.5 mph NW5.6 kmh NW 6.9 mph11.1 kmh 30.38 in1028.8 mb - 0.00 in0.0 mm 0.00 in0.0 mm
07:20 PM 37.1°F2.8°C 15.5°F-9.2°C 41% 3.5 mph NNW5.6 kmh NNW 5.8 mph9.3 kmh 30.39 in1029.1 mb - 0.00 in0.0 mm 0.00 in0.0 mm
07:25 PM 37.0°F2.8°C 15.5°F-9.2°C 41% 2.3 mph NW3.7 kmh NW 4.6 mph7.4 kmh 30.39 in1029.1 mb - 0.00 in0.0 mm 0.00 in0.0 mm
07:30 PM 36.6°F2.6°C 15.7°F-9.1°C 42% 2.3 mph NW3.7 kmh NW 3.5 mph5.6 kmh 30.39 in1029.1 mb - 0.00 in0.0 mm 0.00 in0.0 mm
07:35 PM 36.4°F2.4°C 16.0°F-8.9°C 43% 2.3 mph WNW3.7 kmh WNW 3.5 mph5.6 kmh 30.39 in1029.1 mb - 0.00 in0.0 mm 0.00 in0.0 mm
07:40 PM 36.1°F2.3°C 15.7°F-9.1°C 43% 1.2 mph NW1.9 kmh NW 2.3 mph3.7 kmh 30.39 in1029.1 mb - 0.00 in0.0 mm 0.00 in0.0 mm
07:45 PM 36.0°F2.2°C 15.6°F-9.1°C 43% 2.3 mph N3.7 kmh N 3.5 mph5.6 kmh 30.39 in1029.1 mb - 0.00 in0.0 mm 0.00 in0.0 mm
07:50 PM 36.1°F2.3°C 15.7°F-9.1°C 43% 2.3 mph NNW3.7 kmh NNW 4.6 mph7.4 kmh 30.39 in1029.1 mb - 0.00 in0.0 mm 0.00 in0.0 mm
07:55 PM 36.1°F2.3°C 15.8°F-9.0°C 43% 3.5 mph NNW5.6 kmh NNW 4.6 mph7.4 kmh 30.40 in1029.5 mb - 0.00 in0.0 mm 0.00 in0.0 mm
08:00 PM 36.1°F2.3°C 15.7°F-9.1°C 43% 2.3 mph NNW3.7 kmh NNW 5.8 mph9.3 kmh 30.40 in1029.5 mb - 0.00 in0.0 mm 0.00 in0.0 mm
08:05 PM 35.9°F2.2°C 15.5°F-9.2°C 43% 4.6 mph NNW7.4 kmh NNW 6.9 mph11.1 kmh 30.40 in1029.5 mb - 0.00 in0.0 mm 0.00 in0.0 mm
08:10 PM 35.7°F2.1°C 15.9°F-8.9°C 44% 2.3 mph NNW3.7 kmh NNW 4.6 mph7.4 kmh 30.40 in1029.5 mb - 0.00 in0.0 mm 0.00 in0.0 mm
08:15 PM 35.8°F2.1°C 15.4°F-9.2°C 43% 2.3 mph NNW3.7 kmh NNW 4.6 mph7.4 kmh 30.40 in1029.5 mb - 0.00 in0.0 mm 0.00 in0.0 mm
08:20 PM 35.8°F2.1°C 15.5°F-9.2°C 43% 4.6 mph NW7.4 kmh NW 5.8 mph9.3 kmh 30.40 in1029.5 mb - 0.00 in0.0 mm 0.00 in0.0 mm
08:25 PM 35.9°F2.2°C 15.0°F-9.4°C 42% 3.5 mph NNW5.6 kmh NNW 6.9 mph11.1 kmh 30.41 in1029.8 mb - 0.00 in0.0 mm 0.00 in0.0 mm
08:30 PM 35.9°F2.2°C 15.0°F-9.4°C 42% 3.5 mph NNW5.6 kmh NNW 5.8 mph9.3 kmh 30.41 in1029.8 mb - 0.00 in0.0 mm 0.00 in0.0 mm
08:35 PM 35.9°F2.2°C 15.0°F-9.4°C 42% 4.6 mph NW7.4 kmh NW 5.8 mph9.3 kmh 30.41 in1029.8 mb - 0.00 in0.0 mm 0.00 in0.0 mm
08:40 PM 35.8°F2.1°C 14.9°F-9.5°C 42% 3.5 mph NNW5.6 kmh NNW 4.6 mph7.4 kmh 30.41 in1029.8 mb - 0.00 in0.0 mm 0.00 in0.0 mm
08:45 PM 35.7°F2.1°C 15.3°F-9.3°C 43% 4.6 mph NNW7.4 kmh NNW 8.1 mph13.0 kmh 30.41 in1029.8 mb - 0.00 in0.0 mm 0.00 in0.0 mm
08:50 PM 35.5°F1.9°C 15.2°F-9.3°C 43% 3.5 mph NNW5.6 kmh NNW 6.9 mph11.1 kmh 30.41 in1029.8 mb - 0.00 in0.0 mm 0.00 in0.0 mm
08:55 PM 35.5°F1.9°C 14.6°F-9.7°C 42% 3.5 mph NW5.6 kmh NW 4.6 mph7.4 kmh 30.41 in1029.8 mb - 0.00 in0.0 mm 0.00 in0.0 mm
09:00 PM 35.4°F1.9°C 15.1°F-9.4°C 43% 4.6 mph NNW7.4 kmh NNW 6.9 mph11.1 kmh 30.42 in1030.1 mb - 0.00 in0.0 mm 0.00 in0.0 mm
09:05 PM 35.3°F1.8°C 15.0°F-9.4°C 43% 4.6 mph NNW7.4 kmh NNW 8.1 mph13.0 kmh 30.42 in1030.1 mb - 0.00 in0.0 mm 0.00 in0.0 mm
09:10 PM 35.2°F1.8°C 15.4°F-9.2°C 44% 3.5 mph NNW5.6 kmh NNW 6.9 mph11.1 kmh 30.42 in1030.1 mb - 0.00 in0.0 mm 0.00 in0.0 mm
09:15 PM 35.0°F1.7°C 15.3°F-9.3°C 44% 2.3 mph NNE3.7 kmh NNE 3.5 mph5.6 kmh 30.42 in1030.1 mb - 0.00 in0.0 mm 0.00 in0.0 mm
09:20 PM 34.8°F1.6°C 16.1°F-8.8°C 46% 2.3 mph N3.7 kmh N 3.5 mph5.6 kmh 30.43 in1030.5 mb - 0.00 in0.0 mm 0.00 in0.0 mm
09:25 PM 34.7°F1.5°C 15.5°F-9.2°C 45% 3.5 mph N5.6 kmh N 4.6 mph7.4 kmh 30.43 in1030.5 mb - 0.00 in0.0 mm 0.00 in0.0 mm
09:30 PM 34.5°F1.4°C 15.8°F-9.0°C 46% 3.5 mph NW5.6 kmh NW 4.6 mph7.4 kmh 30.43 in1030.5 mb - 0.00 in0.0 mm 0.00 in0.0 mm
09:35 PM 34.4°F1.3°C 15.7°F-9.1°C 46% 2.3 mph N3.7 kmh N 4.6 mph7.4 kmh 30.43 in1030.5 mb - 0.00 in0.0 mm 0.00 in0.0 mm
09:40 PM 34.3°F1.3°C 15.6°F-9.1°C 46% 2.3 mph NNE3.7 kmh NNE 4.6 mph7.4 kmh 30.44 in1030.8 mb - 0.00 in0.0 mm 0.00 in0.0 mm
09:45 PM 34.2°F1.2°C 15.5°F-9.2°C 46% 3.5 mph NNE5.6 kmh NNE 3.5 mph5.6 kmh 30.44 in1030.8 mb - 0.00 in0.0 mm 0.00 in0.0 mm
09:50 PM 34.1°F1.2°C 15.5°F-9.2°C 46% 2.3 mph NNE3.7 kmh NNE 5.8 mph9.3 kmh 30.45 in1031.2 mb - 0.00 in0.0 mm 0.00 in0.0 mm
09:55 PM 34.0°F1.1°C 15.4°F-9.2°C 46% 3.5 mph NNE5.6 kmh NNE 4.6 mph7.4 kmh 30.45 in1031.2 mb - 0.00 in0.0 mm 0.00 in0.0 mm
10:00 PM 33.9°F1.1°C 15.3°F-9.3°C 46% 4.6 mph N7.4 kmh N 6.9 mph11.1 kmh 30.45 in1031.2 mb - 0.00 in0.0 mm 0.00 in0.0 mm
10:05 PM 34.0°F1.1°C 15.4°F-9.2°C 46% 2.3 mph NNE3.7 kmh NNE 3.5 mph5.6 kmh 30.46 in1031.5 mb - 0.00 in0.0 mm 0.00 in0.0 mm
10:10 PM 33.9°F1.1°C 14.8°F-9.6°C 45% 4.6 mph N7.4 kmh N 5.8 mph9.3 kmh 30.46 in1031.5 mb - 0.00 in0.0 mm 0.00 in0.0 mm
10:15 PM 33.8°F1.0°C 14.7°F-9.6°C 45% 4.6 mph NNE7.4 kmh NNE 10.4 mph16.7 kmh 30.46 in1031.5 mb - 0.00 in0.0 mm 0.00 in0.0 mm
10:20 PM 33.7°F0.9°C 14.1°F-9.9°C 44% 3.5 mph N5.6 kmh N 10.4 mph16.7 kmh 30.46 in1031.5 mb - 0.00 in0.0 mm 0.00 in0.0 mm
10:25 PM 33.5°F0.8°C 14.4°F-9.8°C 45% 4.6 mph NNE7.4 kmh NNE 9.2 mph14.8 kmh 30.46 in1031.5 mb - 0.00 in0.0 mm 0.00 in0.0 mm
10:30 PM 33.5°F0.8°C 13.9°F-10.1°C 44% 3.5 mph N5.6 kmh N 10.4 mph16.7 kmh 30.46 in1031.5 mb - 0.00 in0.0 mm 0.00 in0.0 mm
10:35 PM 33.5°F0.8°C 13.9°F-10.1°C 44% 4.6 mph N7.4 kmh N 10.4 mph16.7 kmh 30.47 in1031.8 mb - 0.00 in0.0 mm 0.00 in0.0 mm
10:40 PM 33.4°F0.8°C 13.8°F-10.1°C 44% 3.5 mph N5.6 kmh N 5.8 mph9.3 kmh 30.47 in1031.8 mb - 0.00 in0.0 mm 0.00 in0.0 mm
10:45 PM 33.2°F0.7°C 14.1°F-9.9°C 45% 4.6 mph 7.4 kmh 9.2 mph14.8 kmh 30.47 in1031.8 mb - 0.00 in0.0 mm 0.00 in0.0 mm
10:50 PM 33.3°F0.7°C 13.7°F-10.2°C 44% 3.5 mph N5.6 kmh N 8.1 mph13.0 kmh 30.47 in1031.8 mb - 0.00 in0.0 mm 0.00 in0.0 mm
10:55 PM 33.2°F0.7°C 13.6°F-10.2°C 44% 5.8 mph NNE9.3 kmh NNE 6.9 mph11.1 kmh 30.48 in1032.2 mb - 0.00 in0.0 mm 0.00 in0.0 mm
11:00 PM 33.1°F0.6°C 13.5°F-10.3°C 44% 3.5 mph NE5.6 kmh NE 8.1 mph13.0 kmh 30.48 in1032.2 mb - 0.00 in0.0 mm 0.00 in0.0 mm
11:05 PM 33.0°F0.6°C 13.4°F-10.3°C 44% 6.9 mph NNW11.1 kmh NNW 11.5 mph18.5 kmh 30.48 in1032.2 mb - 0.00 in0.0 mm 0.00 in0.0 mm
11:10 PM 33.0°F0.6°C 13.4°F-10.3°C 44% 3.5 mph N5.6 kmh N 6.9 mph11.1 kmh 30.49 in1032.5 mb - 0.00 in0.0 mm 0.00 in0.0 mm
11:15 PM 32.8°F0.4°C 13.2°F-10.4°C 44% 4.6 mph N7.4 kmh N 11.5 mph18.5 kmh 30.49 in1032.5 mb - 0.00 in0.0 mm 0.00 in0.0 mm
11:20 PM 32.7°F0.4°C 13.2°F-10.4°C 44% 3.5 mph N5.6 kmh N 4.6 mph7.4 kmh 30.50 in1032.8 mb - 0.00 in0.0 mm 0.00 in0.0 mm
11:25 PM 32.5°F0.3°C 13.0°F-10.6°C 44% 3.5 mph N5.6 kmh N 10.4 mph16.7 kmh 30.50 in1032.8 mb - 0.00 in0.0 mm 0.00 in0.0 mm
11:30 PM 32.4°F0.2°C 12.9°F-10.6°C 44% 4.6 mph N7.4 kmh N 5.8 mph9.3 kmh 30.50 in1032.8 mb - 0.00 in0.0 mm 0.00 in0.0 mm
11:35 PM 32.3°F0.2°C 13.3°F-10.4°C 45% 3.5 mph NNW5.6 kmh NNW 8.1 mph13.0 kmh 30.50 in1032.8 mb - 0.00 in0.0 mm 0.00 in0.0 mm
11:40 PM 32.2°F0.1°C 13.2°F-10.4°C 45% 4.6 mph NNW7.4 kmh NNW 10.4 mph16.7 kmh 30.50 in1032.8 mb - 0.00 in0.0 mm 0.00 in0.0 mm
11:45 PM 32.0°F0.0°C 13.0°F-10.6°C 45% 5.8 mph NNW9.3 kmh NNW 5.8 mph9.3 kmh 30.51 in1033.2 mb - 0.00 in0.0 mm 0.00 in0.0 mm
11:50 PM 31.9°F-0.1°C 13.4°F-10.3°C 46% 4.6 mph NW7.4 kmh NW 6.9 mph11.1 kmh 30.51 in1033.2 mb - 0.00 in0.0 mm 0.00 in0.0 mm
11:55 PM 31.8°F-0.1°C 13.3°F-10.4°C 46% 5.8 mph NNW9.3 kmh NNW 9.2 mph14.8 kmh 30.51 in1033.2 mb - 0.00 in0.0 mm 0.00 in0.0 mm